Flight Track Log - Related Links

Times and Time Zones

All times are in EDT time to prevent confusion due to time zone crossing. See the SWA1535 flight status page for this flight to view local times or setup timezone preferences in your user account.

Time Position Orientation Groundspeed Altitude Reporting Facility
EDT Latitude Longitude Course Direction KTS MPH feet Rate Location/Type
Fri 09:27:05 PM 41.2569 -95.8853 176° South 179 206 3,500  Level Minneapolis Center
Fri 09:28:06 PM 41.2117 -95.9331 218° Southwest 249 287 6,000 3,122 Climbing Minneapolis Center
Fri 09:29:08 PM 41.1958 -96.0322 258° West 279 321 9,900 3,290 Climbing Minneapolis Center
Fri 09:30:10 PM 41.2042 -96.1514 275° West 317 365 12,800 3,097 Climbing Minneapolis Center
Fri 09:31:12 PM 41.2158 -96.2819 277° West 344 396 16,300 2,613 Climbing Minneapolis Center
Fri 09:32:14 PM 41.2278 -96.4247 276° West 378 435 18,200 2,419 Climbing Minneapolis Center
Fri 09:33:16 PM 41.2431 -96.6097 276° West 413 475 21,300 2,758 Climbing Minneapolis Center
Fri 09:34:18 PM 41.2567 -96.7703 276° West 432 497 23,900 2,226 Climbing Minneapolis Center
Fri 09:35:20 PM 41.2703 -96.9331 276° West 442 509 25,900 2,146 Climbing Minneapolis Center
Fri 09:36:21 PM 41.2831 -97.0997 276° West 451 519 28,300 2,244 Climbing Minneapolis Center
Fri 09:37:23 PM 41.2964 -97.2656 276° West 451 519 30,500 2,371 Climbing Minneapolis Center
Fri 09:38:25 PM 41.3103 -97.4439 276° West 447 514 33,200 2,371 Climbing Minneapolis Center
Fri 09:39:27 PM 41.3217 -97.5994 276° West 432 497 35,400 1,355 Climbing Minneapolis Center
Fri 09:40:29 PM 41.3342 -97.7714 276° West 422 486 36,000 293 Climbing Minneapolis Center
Fri 09:41:30 PM 41.3458 -97.9297 276° West 427 491 36,000 390 Level Minneapolis Center
Fri 09:42:32 PM 41.3211 -98.0847 258° West 431 496 36,800 927 Climbing Minneapolis Center
Fri 09:43:33 PM 41.2894 -98.2519 256° West 429 494 37,900 585 Climbing Minneapolis Center
Fri 09:44:35 PM 41.2597 -98.4036 255° West 426 490 38,000 48 Climbing Minneapolis Center
Fri 09:45:37 PM 41.2322 -98.5419 255° West 426 490 38,000  Level Minneapolis Center
Fri 09:46:38 PM 41.2017 -98.6956 255° West 428 493 38,000  Level Minneapolis Center
Fri 09:47:40 PM 41.1703 -98.8489 255° West 430 495 38,000  Level Minneapolis Center
Fri 09:48:28 PM 41.1397 -98.9947 254° West 431 496 38,000  Level Denver Center
Fri 09:49:30 PM 41.1067 -99.1575 255° West 433 498 38,000  Level Denver Center
Fri 09:50:32 PM 41.0750 -99.3108 255° West 433 498 38,000  Level Denver Center
Fri 09:51:34 PM 41.0428 -99.4661 255° West 436 502 38,000  Level Denver Center
Fri 09:52:36 PM 41.0106 -99.6214 255° West 437 503 38,000  Level Denver Center
Fri 09:53:38 PM 40.9775 -99.7758 254° West 437 503 38,000  Level Denver Center
Fri 09:54:40 PM 40.9392 -99.9558 254° West 437 503 38,000  Level Denver Center
Fri 09:55:42 PM 40.9078 -100.1036 254° West 436 502 38,000  Level Denver Center
Fri 09:56:44 PM 40.8703 -100.2756 254° West 436 502 38,000  Level Denver Center
Fri 09:57:46 PM 40.8381 -100.4239 254° West 438 504 38,000  Level Denver Center
Fri 09:58:48 PM 40.8056 -100.5717 254° West 437 503 38,000  Level Denver Center
Fri 09:59:50 PM 40.7686 -100.7506 255° West 445 512 38,000  Level Denver Center
Fri 10:00:53 PM 40.7444 -100.9094 259° West 444 511 38,000  Level Denver Center
Fri 10:01:55 PM 40.7194 -101.0636 258° West 448 516 38,000  Level Denver Center
Fri 10:02:57 PM 40.6889 -101.2408 257° West 445 512 38,000  Level Denver Center
Fri 10:03:59 PM 40.6622 -101.3919 257° West 442 509 38,000  Level Denver Center
Fri 10:05:01 PM 40.6308 -101.5689 257° West 444 511 38,000  Level Denver Center
Fri 10:06:03 PM 40.6017 -101.7206 256° West 446 513 38,000  Level Denver Center
Fri 10:07:05 PM 40.5703 -101.8986 257° West 449 517 38,000  Level Denver Center
Fri 10:08:07 PM 40.5433 -102.0506 257° West 445 512 38,000  Level Denver Center
Fri 10:09:09 PM 40.5106 -102.2275 256° West 446 513 38,000  Level Denver Center
Fri 10:10:11 PM 40.4819 -102.3789 256° West 446 513 38,000  Level Denver Center
Fri 10:11:13 PM 40.4500 -102.5544 257° West 442 509 38,000  Level Denver Center
Fri 10:12:15 PM 40.4200 -102.7119 256° West 442 509 38,000 -976 Level Denver Center
Fri 10:13:16 PM 40.3908 -102.8697 256° West 441 507 36,000 -2,049 Descending Denver Center
Fri 10:14:18 PM 40.3608 -103.0292 256° West 447 514 33,800 -2,516 Descending Denver Center
Fri 10:15:20 PM 40.3286 -103.1908 255° West 454 522 30,800 -2,613 Descending Denver Center
Fri 10:16:22 PM 40.2994 -103.3478 256° West 441 507 28,400 -2,274 Descending Denver Center
Fri 10:17:24 PM 40.2697 -103.4994 256° West 428 493 26,100 -2,371 Descending Denver Center
Fri 10:18:26 PM 40.2367 -103.6686 256° West 409 471 23,500 -2,081 Descending Denver Center
Fri 10:19:28 PM 40.2094 -103.8064 256° West 406 467 21,800 -1,403 Descending Denver Center
Fri 10:20:30 PM 40.1694 -103.9211 246° West 352 405 20,600 -1,403 Descending Denver Center
Fri 10:21:32 PM 40.1169 -104.0350 239° Southwest 339 390 18,900 -1,452 Descending Denver Center
Fri 10:22:34 PM 40.0706 -104.1333 238° Southwest 315 362 17,600 -1,463 Descending Denver Center
Fri 10:23:35 PM 40.0225 -104.2375 239° Southwest 309 356 15,900 -1,561 Descending Denver Center
Fri 10:24:37 PM 39.9800 -104.3286 239° Southwest 298 343 14,400 -1,667 Descending Denver Center
Fri 10:25:23 PM 39.9667 -104.4000 256° West 293 337 12,900 -1,755 Descending Denver TRACON
Fri 10:26:23 PM 39.9667 -104.5167 270° West 292 336 11,300 -950 Descending Denver TRACON
Fri 10:27:23 PM 39.9667 -104.6167 270° West 278 320 11,000 -225 Descending Denver TRACON
Fri 10:27:43 PM 39.9597 -104.6419 250° West 275 316 11,000 73 Level Denver Center
Fri 10:28:45 PM 39.9581 -104.7300 269° West 227 261 11,100 -387 Climbing Denver Center
Fri 10:29:47 PM 39.9561 -104.8094 268° West 221 254 10,200 -1,122 Descending Denver Center
Fri 10:30:48 PM 39.9556 -104.8944 270° West 220 253 8,800 -1,024 Descending Denver Center
Fri 10:31:50 PM 39.9444 -104.9697 259° West 220 253 8,100 -387 Descending Denver Center
Fri 10:32:52 PM 39.8831 -104.9842 190° South 212 244 8,000 -48 Descending Denver Center
Fri 10:33:54 PM 39.8461 -104.9517 146° Southeast 165 190 8,000 -194 Level Denver Center
Fri 10:34:56 PM 39.8422 -104.8856 94° East 173 199 7,600 -629 Descending Denver Center
Fri 10:35:58 PM 39.8419 -104.8189 90° East 180 207 6,700 -829 Descending Denver Center
Fri 10:36:59 PM 39.8411 -104.7644 91° East 153 176 5,900 -683 Descending Denver Center
Fri 10:38:01 PM 39.8408 -104.7114 90° East 144 166 5,300 -581 Descending Denver Center
Fri 10:40:00 PM 39.8500 -104.6667 94° East  Level FlightAware Approximate
Fri 10:47:00 PM 39.8617 -104.6732 94° East  Level Estimated
Fri 10:48:00 PM 39.8617 -104.6732 94° East  Level Estimated

Login

Don't have an account? Register now (free) for customized features, flight alerts, and more!